Aviation Digital Data Service (ADDS)

Output produced by TAFs form (1148 UTC 27 May 2017)
found at http://www.aviationweather.gov/adds/tafs/
 
METAR text: LHBP 271130Z 03009KT 350V110 CAVOK 22/08 Q1020 NOSIG
Conditions at: LHBP (BUDAPEST/FERIHEG, HU) observed 1130 UTC 27 May 2017
Temperature: 22.0°C (72°F)
Dewpoint: 8.0°C (46°F) [RH = 41%]
Pressure (altimeter): 30.12 inches Hg (1020.0 mb)
Winds: from the NNE (30 degrees) at 10 MPH (9 knots; 4.7 m/s)
Visibility: 6 or more miles (10+ km)
Ceiling: ceiling and visibility are OK
Clouds: unknown
Weather: no significant weather observed at this time

Forecast for: LHBP (BUDAPEST/FERIHEG, HU)
Text: TAF LHBP 271115Z 2712/2812 03008KT CAVOK
Forecast period: 1200 UTC 27 May 2017 to 0600 UTC 28 May 2017
Forecast type: FROM: standard forecast or significant change
Winds: from the NNE (30 degrees) at 9 MPH (8 knots; 4.2 m/s)
Visibility: 6 or more miles (10+ km)
Clouds: not forecast
Weather: NSW  (no significant weather)
Text: BECMG 2806/2808 07008KT
Forecast period: 0600 to 1200 UTC 28 May 2017
Forecast type: BECOMING: Conditions expected to become as follows by 0800 UTC 28 May 2017
Winds: from the ENE (70 degrees) at 9 MPH (8 knots; 4.2 m/s)
Visibility: 6 or more miles (10+ km)
Weather: NSW  (no significant weather)